Jackson Belden, Ohio
Current Conditions -  °F | °C
As of 12:51 AM on Wednesday 28 Jan 2015 (Local Time) from KCAK Reporting Station
Few Clouds Few Clouds  
Wind Chill: 12°   Ceiling: Unl
Heat Index: 12°   Visibility: 10mi
Dew Point:   Wind: 3mph
Humidity: 84%   Direction: 330°NNW
Pressure: 30.14"   Gusts: NA
Location:  40.8509°N, 81.4472°W
Report Text: KCAK 280551Z 33003KT 10SM FEW013 M11/M13 A3014 RMK AO2 SLP227 4/006 T11111133 11078 21117 51003 $
Loading
Personal Weather Stations






























Interactive Weather Map New forecast layout! Learn more

10-Day Weather Forecast

Advertisements
Track Severe Weather on mobile